Normandy Beach, New Jersey
Current Conditions -  °F | °C
As of 10:15 AM on Friday 19 Dec 2014 (Local Time) from KBLM Reporting Station
Overcast Overcast  
Wind Chill: 29°   Ceiling: 3300
Heat Index: 37°   Visibility: 10mi
Dew Point: 21°   Wind: 15mph
Humidity: 52%   Direction: 310°NW
Pressure: 30.06"   Gusts: 21mph
Location:  40°N, 74.06°W
Report Text: KBLM 191515Z AUTO 31013G18KT 10SM OVC033 03/M06 A3006 RMK AO1
Loading
Personal Weather Stations






























Interactive Weather Map New forecast layout! Learn more

10-Day Weather Forecast

Advertisements
Track Severe Weather on mobile